Time;durP1;ratioP1;P1;durP2;ratioP2;P2;SDS_P1;SDS_P2;PMS_P1;PMS_P2;Temp;Humidity;BMP_temperature;BMP_pressure;BME280_temperature;BME280_humidity;BME280_pressure;Samples;Min_cycle;Max_cycle;Signal;HPM_P1;HPM_P2
2021/01/18 00:00:15;;;;;;;26.87;14.60;;;;;;;-14.68;60.89;100422.52;1776220;79;21165;-93
2021/01/18 00:02:47;;;;;;;22.90;10.77;;;;;;;-14.80;60.94;100426.98;1764210;80;21797;-92
2021/01/18 00:05:15;;;;;;;16.83;9.50;;;;;;;-14.90;60.98;100429.27;1750392;78;22207;-91
2021/01/18 00:07:46;;;;;;;22.67;12.53;;;;;;;-15.00;61.16;100427.30;1723234;81;22141;-90
2021/01/18 00:10:18;;;;;;;23.07;12.50;;;;;;;-15.08;61.28;100436.83;1765239;79;22458;-88
2021/01/18 00:12:48;;;;;;;18.77;11.63;;;;;;;-15.11;61.46;100439.42;1770435;79;21850;-88
2021/01/18 00:15:17;;;;;;;24.47;12.57;;;;;;;-15.14;61.45;100437.77;1765724;79;22582;-87
2021/01/18 00:17:45;;;;;;;26.37;13.43;;;;;;;-15.14;61.53;100441.60;1773182;79;22420;-85
2021/01/18 00:20:15;;;;;;;28.63;15.43;;;;;;;-15.09;61.71;100437.23;1763430;79;22070;-85
2021/01/18 00:22:43;;;;;;;31.00;15.87;;;;;;;-14.99;61.57;100446.05;1771166;79;22010;-87
2021/01/18 00:25:13;;;;;;;24.80;14.13;;;;;;;-14.95;61.35;100447.27;1777106;80;22355;-87
2021/01/18 00:27:41;;;;;;;25.43;13.50;;;;;;;-14.89;61.24;100448.88;1775028;79;22025;-88
2021/01/18 00:30:13;;;;;;;25.67;13.60;;;;;;;-14.81;61.30;100449.59;1778811;79;21924;-89
2021/01/18 00:32:41;;;;;;;32.93;16.40;;;;;;;-14.76;60.90;100449.09;1767828;79;21940;-88
2021/01/18 00:35:10;;;;;;;23.67;13.30;;;;;;;-14.77;60.80;100448.66;1771691;79;21873;-87
2021/01/18 00:37:49;;;;;;;23.47;13.70;;;;;;;-14.79;60.90;100442.73;1749560;79;21951;-88
2021/01/18 00:40:24;;;;;;;30.00;16.53;;;;;;;-14.80;60.85;100444.89;1773401;79;21843;-91
2021/01/18 00:42:54;;;;;;;29.07;14.93;;;;;;;-14.76;61.04;100441.85;1777803;78;21802;-93
2021/01/18 00:45:35;;;;;;;29.73;14.37;;;;;;;-14.55;61.21;100452.11;1768301;80;21173;-94
2021/01/18 00:48:04;;;;;;;28.27;14.90;;;;;;;-14.55;61.21;100452.11;1772346;80;21314;-87
2021/01/18 00:50:32;;;;;;;30.93;14.80;;;;;;;-14.37;60.57;100447.95;1774374;80;21359;-89
2021/01/18 00:53:00;;;;;;;32.33;15.80;;;;;;;-14.31;60.48;100446.98;1777056;79;21672;-86
2021/01/18 00:55:28;;;;;;;24.50;14.90;;;;;;;-14.31;60.48;100446.98;1739566;81;21187;-88
2021/01/18 00:58:25;;;;;;;28.67;15.20;;;;;;;-14.21;60.37;100440.81;1799905;78;23573;-88
2021/01/18 01:00:54;;;;;;;30.10;16.57;;;;;;;-14.18;60.20;100443.73;1724182;80;21909;-91
2021/01/18 01:03:25;;;;;;;28.80;15.97;;;;;;;-14.21;60.04;100427.16;1769468;80;21888;-95
2021/01/18 01:06:05;;;;;;;34.43;16.73;;;;;;;-14.13;59.97;100437.65;1717500;82;21924;-94
2021/01/18 01:09:17;;;;;;;25.60;14.53;;;;;;;-14.08;59.66;100448.27;1811735;77;23714;-96
2021/01/18 01:11:54;;;;;;;27.40;16.53;;;;;;;-14.08;59.66;100448.27;1753762;81;21389;-96
2021/01/18 01:14:39;;;;;;;30.97;16.30;;;;;;;-14.19;59.91;100434.38;1699953;83;22995;-94
2021/01/18 01:17:11;;;;;;;31.15;15.75;;;;;;;-14.23;60.06;100440.00;1754325;79;22183;-94
2021/01/18 01:19:42;;;;;;;33.13;17.03;;;;;;;-14.31;59.68;100438.03;1779166;79;21160;-88
2021/01/18 01:22:10;;;;;;;26.60;16.13;;;;;;;-14.44;59.58;100438.69;1772815;78;22129;-87
2021/01/18 01:24:37;;;;;;;29.63;18.50;;;;;;;-14.48;59.89;100434.91;1686434;83;21863;-91
2021/01/18 01:27:05;;;;;;;29.70;16.30;;;;;;;-14.43;60.03;100437.80;1771024;79;21883;-88
2021/01/18 01:29:33;;;;;;;28.47;16.13;;;;;;;-14.35;60.08;100433.40;1772586;79;21586;-90
2021/01/18 01:32:00;;;;;;;31.90;16.63;;;;;;;-14.27;60.08;100440.09;1721814;81;21865;-90
2021/01/18 01:34:33;;;;;;;31.70;16.60;;;;;;;-14.27;59.86;100444.77;1760022;78;21814;-93
2021/01/18 01:37:37;;;;;;;;;;;;;;;;;;;;;
2021/01/18 01:40:11;;;;;;;30.57;16.67;;;;;;;-14.19;59.59;100439.50;1766866;77;23011;-92
2021/01/18 01:42:41;;;;;;;34.57;17.90;;;;;;;-14.18;59.74;100438.61;1749004;80;21824;-93
2021/01/18 01:45:15;;;;;;;30.53;17.83;;;;;;;-13.98;59.77;100431.83;1726510;81;21836;-85
2021/01/18 01:47:50;;;;;;;28.47;16.40;;;;;;;-13.98;59.77;100431.83;1749991;80;21084;-93
2021/01/18 01:50:26;;;;;;;31.97;17.27;;;;;;;-13.92;59.57;100435.53;1754815;81;21859;-95
2021/01/18 01:53:21;;;;;;;35.08;16.37;;;;;;;-13.93;59.30;100428.74;1749504;80;21869;-94
2021/01/18 01:56:06;;;;;;;37.83;19.63;;;;;;;-13.93;59.31;100415.93;1863059;76;22839;-95
2021/01/18 01:58:37;;;;;;;26.23;16.80;;;;;;;-14.02;59.46;100429.77;1827858;78;21922;-95
2021/01/18 02:01:24;;;;;;;27.90;18.87;;;;;;;-13.96;59.58;100412.97;1830611;76;23540;-94
2021/01/18 02:03:58;;;;;;;35.77;18.47;;;;;;;-13.91;59.58;100413.73;1828009;77;21095;-90
2021/01/18 02:06:27;;;;;;;28.27;15.40;;;;;;;-13.89;59.42;100412.42;1793737;77;21118;-95
2021/01/18 02:09:29;;;;;;;29.90;17.13;;;;;;;-13.89;59.61;100412.88;1837931;76;22997;-94
2021/01/18 02:12:01;;;;;;;33.37;16.83;;;;;;;-14.05;59.54;100414.47;1790636;78;21865;-94
2021/01/18 02:18:42;;;;;;;32.10;17.23;;;;;;;-14.15;59.95;100422.75;1780975;77;21265;-93
2021/01/18 02:21:33;;;;;;;33.93;16.20;;;;;;;-14.15;60.13;100415.52;1806862;77;21962;-93
2021/01/18 02:24:40;;;;;;;32.90;17.17;;;;;;;-14.16;60.37;100412.56;1744993;80;21886;-90
2021/01/18 02:27:36;;;;;;;33.33;16.27;;;;;;;-14.21;60.65;100419.48;1740266;80;22314;-91
2021/01/18 02:30:39;;;;;;;39.83;16.63;;;;;;;-14.32;60.61;100421.80;1738801;80;22280;-91
2021/01/18 02:33:31;;;;;;;37.83;18.13;;;;;;;-14.32;60.61;100421.80;1729246;80;21207;-93
2021/01/18 02:36:26;;;;;;;;;;;;;;;;;;;;;
2021/01/18 02:39:28;;;;;;;35.13;19.17;;;;;;;-14.34;60.63;100419.70;1737734;80;23077;-94
2021/01/18 02:42:09;;;;;;;34.00;18.00;;;;;;;-14.40;60.80;100428.79;1747724;81;21871;-94
2021/01/18 02:45:02;;;;;;;30.23;17.13;;;;;;;-14.39;60.72;100429.22;1848152;76;23077;-93
2021/01/18 02:47:36;;;;;;;33.20;16.97;;;;;;;-14.45;60.67;100434.88;1785478;78;21811;-96
2021/01/18 02:50:10;;;;;;;30.63;17.83;;;;;;;-14.46;60.73;100426.35;1779158;78;21948;-94
2021/01/18 02:53:18;;;;;;;23.13;12.93;;;;;;;-14.48;60.93;100420.83;1821762;76;24324;-94
2021/01/18 02:55:48;;;;;;;29.05;15.90;;;;;;;-14.57;61.34;100428.30;1723026;79;21866;-96
2021/01/18 02:58:35;;;;;;;30.87;15.30;;;;;;;-14.82;61.29;100399.72;1749047;80;21257;-94
2021/01/18 03:01:43;;;;;;;;;;;;;;;;;;;;;
2021/01/18 03:05:29;;;;;;;27.00;15.07;;;;;;;-14.78;61.86;100452.55;1761965;79;21180;-96
2021/01/18 03:08:52;;;;;;;26.48;13.98;;;;;;;-14.83;61.91;100440.27;1762270;80;21868;-96
2021/01/18 03:12:14;;;;;;;38.90;18.03;;;;;;;-14.94;62.28;100432.75;1781607;78;23547;-89
2021/01/18 03:14:46;;;;;;;30.00;15.87;;;;;;;-14.99;62.50;100438.38;1803579;77;22291;-89
2021/01/18 03:17:19;;;;;;;31.17;17.37;;;;;;;-15.01;62.52;100440.11;1819386;77;21962;-89
2021/01/18 03:19:47;;;;;;;27.27;15.20;;;;;;;-15.00;62.49;100442.66;1801992;78;21840;-88
2021/01/18 03:22:29;;;;;;;30.93;14.47;;;;;;;-14.99;62.45;100446.91;1816398;77;21809;-88
2021/01/18 03:25:01;;;;;;;33.93;17.30;;;;;;;-14.97;62.42;100444.30;1790791;78;21860;-88
2021/01/18 03:27:29;;;;;;;32.77;18.37;;;;;;;-14.97;62.43;100441.75;1819539;77;22329;-88
2021/01/18 03:29:56;;;;;;;26.87;14.20;;;;;;;-14.96;62.34;100446.84;1797542;78;21837;-87
2021/01/18 03:32:24;;;;;;;31.10;17.90;;;;;;;-14.95;62.32;100442.16;1790947;79;21869;-89
2021/01/18 03:37:15;;;;;;;30.83;14.90;;;;;;;-14.95;62.18;100441.31;1737424;79;22286;-89
2021/01/18 03:39:44;;;;;;;30.63;18.07;;;;;;;-15.07;62.43;100444.05;1698339;83;21996;-88
2021/01/18 03:42:13;;;;;;;32.20;16.53;;;;;;;-15.08;62.27;100445.77;1696855;83;21896;-87
2021/01/18 03:44:40;;;;;;;30.73;17.23;;;;;;;-15.09;62.21;100449.19;1698679;83;21891;-89
2021/01/18 03:47:10;;;;;;;33.23;17.10;;;;;;;-15.12;62.08;100456.48;1697984;83;22032;-90
2021/01/18 03:49:39;;;;;;;42.87;21.83;;;;;;;-15.17;62.12;100451.87;1698743;83;21868;-88
2021/01/18 03:52:08;;;;;;;37.10;18.67;;;;;;;-15.20;62.17;100453.63;1692128;83;21904;-86
2021/01/18 03:54:38;;;;;;;33.30;19.67;;;;;;;-15.17;62.09;100456.98;1687442;83;22013;-85
2021/01/18 03:57:06;;;;;;;40.63;20.87;;;;;;;-15.16;62.08;100450.14;1683535;83;22440;-87
2021/01/18 03:59:33;;;;;;;38.83;17.87;;;;;;;-15.16;61.95;100450.14;1685593;83;21882;-86
2021/01/18 04:02:01;;;;;;;36.73;18.20;;;;;;;-15.19;62.10;100445.94;1695552;83;21902;-88
2021/01/18 04:04:28;;;;;;;32.67;17.93;;;;;;;-15.24;61.89;100448.15;1692050;83;22015;-87
2021/01/18 04:06:56;;;;;;;34.63;17.90;;;;;;;-15.27;62.14;100454.16;1679967;83;21847;-89
2021/01/18 04:09:23;;;;;;;39.43;20.00;;;;;;;-15.30;62.06;100447.81;1683479;83;21869;-87
2021/01/18 04:11:52;;;;;;;34.63;19.17;;;;;;;-15.29;61.93;100449.51;1690906;83;22017;-89
2021/01/18 04:14:22;;;;;;;39.40;19.20;;;;;;;-15.27;62.14;100454.16;1686762;83;21911;-90
2021/01/18 04:16:49;;;;;;;36.27;16.77;;;;;;;-15.25;61.92;100448.59;1691511;83;21995;-86
2021/01/18 04:19:18;;;;;;;37.83;18.23;;;;;;;-15.24;62.15;100447.70;1656908;83;21927;-89
2021/01/18 04:21:46;;;;;;;36.00;18.57;;;;;;;-15.24;61.90;100443.03;1685703;83;21885;-88
2021/01/18 04:24:14;;;;;;;32.63;17.17;;;;;;;-15.25;61.70;100445.17;1707958;83;21894;-88
2021/01/18 04:26:43;;;;;;;29.60;16.03;;;;;;;-15.26;62.07;100448.61;1703478;82;21890;-90
2021/01/18 04:29:10;;;;;;;33.33;17.13;;;;;;;-15.25;62.11;100451.15;1702909;83;22307;-89
2021/01/18 04:31:41;;;;;;;41.77;18.13;;;;;;;-15.26;62.04;100450.72;1682158;83;21875;-87
2021/01/18 04:34:09;;;;;;;38.13;19.93;;;;;;;-15.26;62.19;100458.39;1690009;83;21974;-87
2021/01/18 04:36:38;;;;;;;37.97;18.50;;;;;;;-15.25;62.21;100453.70;1688795;78;22416;-88
2021/01/18 04:39:09;;;;;;;37.70;18.53;;;;;;;-15.23;62.07;100457.08;1685626;83;21934;-90
2021/01/18 04:41:39;;;;;;;33.50;18.87;;;;;;;-15.22;62.21;100458.75;1681420;83;22080;-87
2021/01/18 04:44:16;;;;;;;28.03;15.70;;;;;;;-15.24;62.28;100450.27;1667891;83;22320;-87
2021/01/18 04:46:45;;;;;;;35.20;18.67;;;;;;;-15.24;62.18;100455.81;1685499;83;21855;-89
2021/01/18 04:49:14;;;;;;;35.00;19.60;;;;;;;-15.28;61.99;100458.85;1690129;83;21900;-87
2021/01/18 04:51:57;;;;;;;36.90;18.07;;;;;;;-15.26;61.92;100460.95;1689917;85;22003;-89
2021/01/18 04:54:26;;;;;;;37.30;20.90;;;;;;;-15.23;61.96;100462.20;1677464;83;21917;-88
2021/01/18 04:57:10;;;;;;;31.03;16.90;;;;;;;-15.21;61.84;100465.57;1688428;84;21887;-89
2021/01/18 04:59:46;;;;;;;31.63;17.67;;;;;;;-15.23;61.88;100461.36;1686007;83;22014;-88
2021/01/18 05:02:22;;;;;;;36.27;20.03;;;;;;;-15.26;61.86;100467.34;1676196;83;21896;-89
2021/01/18 05:04:51;;;;;;;36.97;19.27;;;;;;;-15.27;62.19;100466.08;1677937;83;22554;-89
2021/01/18 05:07:37;;;;;;;40.17;19.90;;;;;;;-15.28;61.93;100458.85;1684255;83;21766;-88
2021/01/18 05:10:12;;;;;;;31.07;18.23;;;;;;;-15.52;61.72;100422.98;1663763;85;22018;-88
2021/01/18 05:12:46;;;;;;;37.73;20.97;;;;;;;-15.32;61.77;100468.72;1650464;85;21921;-88
2021/01/18 05:15:14;;;;;;;39.83;20.63;;;;;;;-15.32;61.67;100477.22;1681073;83;22369;-89
2021/01/18 05:17:47;;;;;;;39.40;20.47;;;;;;;-15.30;61.54;100484.44;1644459;86;21928;-87
2021/01/18 05:20:17;;;;;;;39.40;19.53;;;;;;;-15.28;61.30;100493.36;1631037;87;21904;-88
2021/01/18 05:25:31;;;;;;;33.77;17.47;;;;;;;-15.22;61.48;100498.38;1828488;77;22935;-88
2021/01/18 05:28:09;;;;;;;35.87;19.50;;;;;;;-15.31;61.11;100501.06;1792715;78;21940;-88
2021/01/18 05:30:42;;;;;;;40.53;20.17;;;;;;;-15.37;61.21;100505.83;1794185;78;21856;-89
2021/01/18 05:33:15;;;;;;;32.60;17.73;;;;;;;-15.37;61.66;100512.66;1746403;80;21987;-88
2021/01/18 05:35:50;;;;;;;36.60;19.10;;;;;;;-15.36;61.37;100513.09;1758410;78;21765;-89
2021/01/18 05:38:17;;;;;;;33.83;17.73;;;;;;;-15.38;61.43;100513.55;1674189;83;21923;-86
2021/01/18 05:40:50;;;;;;;38.03;20.53;;;;;;;-15.39;61.31;100513.12;1701522;83;22042;-88
2021/01/18 05:43:21;;;;;;;37.27;19.97;;;;;;;-15.37;61.16;100519.05;1696037;83;21914;-86
2021/01/18 05:45:48;;;;;;;41.27;18.93;;;;;;;-15.33;61.21;100518.14;1650686;83;21959;-89
2021/01/18 05:48:28;;;;;;;43.40;18.27;;;;;;;-15.32;61.07;100514.73;1671389;83;22085;-89
2021/01/18 05:50:57;;;;;;;38.53;19.67;;;;;;;-15.27;61.11;100526.16;1693578;83;21905;-87
2021/01/18 05:53:50;;;;;;;36.13;18.07;;;;;;;-15.25;61.21;100524.02;1685120;83;22012;-86
2021/01/18 05:56:19;;;;;;;35.13;16.83;;;;;;;-15.21;60.93;100528.22;1651915;84;21907;-88
2021/01/18 05:58:46;;;;;;;35.63;16.57;;;;;;;-15.22;61.29;100526.95;1661728;84;21920;-88
2021/01/18 06:01:36;;;;;;;27.70;16.27;;;;;;;-15.24;61.35;100529.52;1662000;84;21937;-87
2021/01/18 06:04:10;;;;;;;34.17;18.23;;;;;;;-15.20;61.43;100540.11;1635143;86;21972;-86
2021/01/18 06:07:03;;;;;;;28.50;15.78;;;;;;;-15.23;61.58;100540.17;1631071;86;21862;-88
2021/01/18 06:09:47;;;;;;;35.13;18.87;;;;;;;-15.21;61.47;100542.28;1631762;86;21181;-86
2021/01/18 06:12:29;;;;;;;39.40;18.30;;;;;;;-15.19;61.57;100549.94;1634978;86;22164;-86
2021/01/18 06:15:14;;;;;;;39.80;17.90;;;;;;;-15.20;61.53;100547.78;1626063;87;21979;-87
2021/01/18 06:17:51;;;;;;;39.80;19.43;;;;;;;-15.19;61.86;100548.21;1602603;87;22095;-87
2021/01/18 06:20:27;;;;;;;35.30;19.07;;;;;;;-15.13;61.75;100537.05;1600563;87;22096;-89
2021/01/18 06:22:58;;;;;;;46.43;22.57;;;;;;;-14.98;61.46;100539.39;1590550;87;22022;-90
2021/01/18 06:25:33;;;;;;;37.20;20.83;;;;;;;-14.85;61.22;100534.11;1612026;87;21951;-88
2021/01/18 06:31:03;;;;;;;46.33;22.17;;;;;;;-14.58;60.66;100534.93;1800877;78;23116;-88
2021/01/18 06:33:44;;;;;;;41.77;23.60;;;;;;;-14.52;60.53;100541.22;1762736;79;22109;-90
2021/01/18 06:36:20;;;;;;;56.37;25.97;;;;;;;-14.40;60.12;100545.73;1768215;79;21916;-89
2021/01/18 06:39:01;;;;;;;55.20;24.80;;;;;;;-14.35;59.92;100547.34;1743493;81;21940;-90
2021/01/18 06:41:45;;;;;;;73.00;41.37;;;;;;;-14.25;59.93;100543.34;1823953;76;28231;-89
2021/01/18 06:44:17;;;;;;;56.93;28.37;;;;;;;-14.11;59.62;100542.23;1804795;79;21176;-88
2021/01/18 06:47:34;;;;;;;51.93;23.67;;;;;;;-13.88;59.20;100547.78;1796444;79;23551;-88
2021/01/18 06:50:34;;;;;;;47.60;21.43;;;;;;;-13.90;59.27;100550.38;1800089;77;23086;-88
2021/01/18 06:53:23;;;;;;;57.20;24.63;;;;;;;-13.94;59.20;100559.83;1744848;80;21128;-88
2021/01/18 06:56:26;;;;;;;50.50;24.73;;;;;;;-13.91;58.87;100560.23;1717794;81;21870;-88
2021/01/18 06:59:23;;;;;;;51.20;22.77;;;;;;;-14.60;59.04;100462.45;1709073;82;21227;-93
2021/01/18 07:02:27;;;;;;;47.70;24.27;;;;;;;-14.60;59.04;100462.45;1712590;81;21175;-92
2021/01/18 07:05:13;;;;;;;44.73;22.90;;;;;;;-13.89;59.17;100571.73;1710272;81;21127;-92
2021/01/18 07:08:15;;;;;;;41.97;18.93;;;;;;;-13.87;59.26;100570.83;1696710;81;22017;-90
2021/01/18 07:10:52;;;;;;;39.30;20.40;;;;;;;-13.81;59.31;100574.99;1693449;82;21978;-92
2021/01/18 07:13:32;;;;;;;42.27;21.07;;;;;;;-13.72;59.13;100574.38;1733992;81;21894;-93
2021/01/18 07:16:01;;;;;;;42.83;21.93;;;;;;;-13.72;59.13;100556.44;1738198;81;21180;-89
2021/01/18 07:18:29;;;;;;;37.77;19.00;;;;;;;-13.66;59.34;100565.73;1732743;81;21163;-87
2021/01/18 07:20:58;;;;;;;38.13;18.40;;;;;;;-13.58;59.65;100564.30;1729855;81;21911;-90
2021/01/18 07:23:30;;;;;;;40.57;22.73;;;;;;;-13.52;59.77;100574.45;1726101;81;21945;-92
2021/01/18 07:26:36;;;;;;;32.10;18.07;;;;;;;-13.47;59.88;100579.47;1745819;81;21695;-92
2021/01/18 07:29:07;;;;;;;41.77;23.47;;;;;;;-13.45;59.72;100568.75;1713781;82;21171;-93
2021/01/18 07:31:43;;;;;;;42.13;26.07;;;;;;;-13.38;59.77;100568.59;1733747;81;21147;-90
2021/01/18 07:34:17;;;;;;;48.47;24.27;;;;;;;-13.27;59.51;100576.04;1738076;81;21736;-90
2021/01/18 07:36:45;;;;;;;36.57;20.47;;;;;;;-13.17;59.53;100585.22;1694296;81;21172;-90
2021/01/18 07:39:38;;;;;;;39.10;18.10;;;;;;;-13.16;59.47;100575.38;1668493;83;21191;-90
2021/01/18 07:42:37;;;;;;;45.50;22.83;;;;;;;-13.16;59.55;100577.94;1621110;86;21370;-90
2021/01/18 07:45:17;;;;;;;51.30;25.90;;;;;;;-13.09;59.47;100572.67;1631399;85;21485;-91
2021/01/18 07:48:03;;;;;;;37.93;18.77;;;;;;;-13.00;59.36;100575.05;1640643;84;21339;-91
2021/01/18 07:50:49;;;;;;;40.47;20.77;;;;;;;-12.88;59.05;100555.53;1644995;86;21921;-88
2021/01/18 07:53:19;;;;;;;41.53;21.80;;;;;;;-12.79;58.79;100570.73;1636271;85;21246;-89
2021/01/18 07:55:46;;;;;;;40.93;22.20;;;;;;;-12.77;58.90;100568.97;1657921;84;21217;-89
2021/01/18 07:58:20;;;;;;;36.30;19.07;;;;;;;-12.74;58.71;100566.77;1616474;85;21240;-86
2021/01/18 08:00:48;;;;;;;45.77;25.97;;;;;;;-12.68;58.53;100577.33;1666834;84;21361;-87
2021/01/18 08:03:21;;;;;;;40.63;18.80;;;;;;;-12.60;58.42;100584.41;1669688;83;21362;-87
2021/01/18 08:05:52;;;;;;;33.83;17.17;;;;;;;-12.52;58.40;100578.67;1627269;85;21136;-91
2021/01/18 08:08:29;;;;;;;43.20;22.00;;;;;;;-12.51;57.88;100583.36;1647222;85;21176;-90
2021/01/18 08:11:09;;;;;;;41.50;21.23;;;;;;;-12.60;58.23;100594.67;1628731;85;21165;-89
2021/01/18 08:13:59;;;;;;;45.27;23.57;;;;;;;-12.60;58.27;100594.67;1628516;85;21242;-89
2021/01/18 08:16:40;;;;;;;41.40;20.10;;;;;;;-12.53;58.37;100589.81;1627056;85;21952;-88
2021/01/18 08:19:23;;;;;;;43.60;22.03;;;;;;;-12.42;58.17;100594.70;1633574;85;21339;-89
2021/01/18 08:21:57;;;;;;;48.07;24.30;;;;;;;-12.33;57.88;100597.50;1622684;85;21253;-89
2021/01/18 08:24:34;;;;;;;46.00;22.27;;;;;;;-12.24;57.72;100594.68;1639395;85;21236;-89
2021/01/18 08:27:05;;;;;;;40.05;20.92;;;;;;;-12.19;57.64;100591.56;1663014;85;21380;-91
2021/01/18 08:29:53;;;;;;;49.97;24.17;;;;;;;-12.12;57.48;100580.70;1627517;86;21931;-88
2021/01/18 08:32:42;;;;;;;36.50;21.10;;;;;;;-12.06;57.53;100591.66;1645128;86;21214;-87
2021/01/18 08:36:09;;;;;;;49.17;23.53;;;;;;;-11.98;57.32;100592.75;1624951;85;21141;-85
2021/01/18 08:39:22;;;;;;;41.97;23.90;;;;;;;-11.90;57.29;100595.12;1670206;83;21297;-91
2021/01/18 08:41:50;;;;;;;52.33;25.73;;;;;;;-11.85;56.78;100600.96;1686639;83;21230;-90
2021/01/18 08:44:31;;;;;;;51.80;26.13;;;;;;;-11.85;56.69;100600.96;1666763;84;21223;-90
2021/01/18 08:47:00;;;;;;;49.87;26.87;;;;;;;-11.84;56.80;100592.38;1650473;83;21609;-92
2021/01/18 08:49:35;;;;;;;44.40;24.17;;;;;;;-11.77;56.53;100583.59;1660707;84;21195;-89
2021/01/18 08:52:09;;;;;;;51.70;28.43;;;;;;;-11.69;56.78;100585.99;1687478;84;21350;-90
2021/01/18 08:54:46;;;;;;;44.63;21.63;;;;;;;-11.70;56.21;100584.29;1682662;83;21180;-89
2021/01/18 08:57:24;;;;;;;44.17;23.20;;;;;;;-11.69;56.55;100585.99;1692256;83;21365;-90
2021/01/18 09:00:06;;;;;;;47.30;24.15;;;;;;;-11.72;56.21;100577.90;1674320;84;21251;-88
2021/01/18 09:02:40;;;;;;;54.80;29.17;;;;;;;-11.79;56.27;100580.22;1677928;83;22174;-93
2021/01/18 09:05:18;;;;;;;49.10;28.83;;;;;;;-11.82;55.98;100581.61;1692740;83;21196;-91
2021/01/18 09:07:57;;;;;;;45.90;25.13;;;;;;;-11.79;56.63;100577.66;1655178;85;21577;-88
2021/01/18 09:10:29;;;;;;;36.67;19.30;;;;;;;-11.78;56.45;100575.50;1663028;84;21164;-90
2021/01/18 09:13:09;;;;;;;45.40;23.37;;;;;;;-11.77;55.87;100573.31;1661384;83;21310;-90
2021/01/18 09:15:44;;;;;;;36.93;20.08;;;;;;;-11.72;55.90;100570.63;1690207;83;21185;-89
2021/01/18 09:18:17;;;;;;;40.47;21.67;;;;;;;-11.67;56.14;100573.48;1660629;83;21218;-88
2021/01/18 09:21:16;;;;;;;39.67;19.43;;;;;;;-11.62;56.12;100574.20;1687521;83;21180;-89
2021/01/18 09:24:08;;;;;;;41.87;20.27;;;;;;;-11.56;55.29;100568.89;1676363;83;21188;-91
2021/01/18 09:26:59;;;;;;;37.97;20.90;;;;;;;-11.67;55.58;100562.36;1668166;83;21159;-89
2021/01/18 09:29:32;;;;;;;39.03;20.57;;;;;;;-11.71;55.85;100559.45;1668227;83;21203;-89
2021/01/18 09:32:04;;;;;;;37.43;19.90;;;;;;;-11.73;55.99;100559.52;1659926;84;21140;-90
2021/01/18 09:34:38;;;;;;;43.73;23.37;;;;;;;-11.67;56.11;100559.78;1655086;84;21249;-91
2021/01/18 09:37:06;;;;;;;33.83;18.27;;;;;;;-11.93;55.65;100502.67;1682451;82;21150;-90
2021/01/18 09:39:35;;;;;;;38.97;24.03;;;;;;;-11.52;55.92;100553.38;1684802;83;22248;-89
2021/01/18 09:42:04;;;;;;;31.47;18.67;;;;;;;-11.47;55.64;100548.92;1649000;83;22343;-91
2021/01/18 09:44:32;;;;;;;46.57;22.00;;;;;;;-11.40;55.60;100551.73;1684699;82;21217;-88
2021/01/18 09:46:59;;;;;;;39.70;18.23;;;;;;;-11.32;55.68;100542.50;1687281;82;21433;-88
2021/01/18 09:49:28;;;;;;;46.20;19.20;;;;;;;-11.25;55.34;100542.27;1686731;82;21749;-89
2021/01/18 09:51:56;;;;;;;34.33;18.87;;;;;;;-11.18;55.18;100538.64;1676299;83;21200;-88
2021/01/18 09:54:24;;;;;;;27.10;15.77;;;;;;;-11.07;55.23;100533.62;1682103;82;21187;-87
2021/01/18 09:56:57;;;;;;;38.13;18.63;;;;;;;-11.00;55.01;100536.39;1689709;82;21195;-88
2021/01/18 09:59:46;;;;;;;34.93;20.00;;;;;;;-11.08;54.39;100537.08;1692157;82;21192;-89
2021/01/18 10:02:13;;;;;;;31.23;16.77;;;;;;;-11.10;54.76;100534.55;1689051;82;21219;-90
2021/01/18 10:04:40;;;;;;;33.03;18.33;;;;;;;-10.99;54.83;100535.52;1681903;82;21192;-90
2021/01/18 10:07:09;;;;;;;25.20;13.27;;;;;;;-10.90;54.82;100529.26;1692143;82;21191;-91
2021/01/18 10:09:36;;;;;;;33.10;16.17;;;;;;;-10.81;54.61;100532.37;1707707;82;21796;-90
2021/01/18 10:12:06;;;;;;;21.70;14.37;;;;;;;-10.82;54.47;100532.42;1669076;82;21207;-88
2021/01/18 10:14:33;;;;;;;22.33;11.60;;;;;;;-10.87;53.94;100527.85;1690672;83;21641;-89
2021/01/18 10:17:07;;;;;;;20.97;11.00;;;;;;;-10.97;53.93;100525.56;1673164;84;21345;-89
2021/01/18 10:19:37;;;;;;;20.87;10.70;;;;;;;-11.10;54.15;100542.72;1712519;82;21166;-90
2021/01/18 10:22:18;;;;;;;18.37;10.97;;;;;;;-11.20;54.22;100539.13;1803412;79;22322;-91
2021/01/18 10:24:55;;;;;;;27.60;13.90;;;;;;;-11.24;54.73;100539.28;1716797;83;21600;-90
2021/01/18 10:27:27;;;;;;;26.33;11.38;;;;;;;-11.21;54.45;100536.14;1755956;80;21785;-91
2021/01/18 10:30:18;;;;;;;27.43;15.43;;;;;;;-11.11;54.11;100543.17;1741610;82;21192;-90
2021/01/18 10:32:51;;;;;;;23.70;11.23;;;;;;;-11.08;54.74;100530.19;1729596;80;21105;-90
2021/01/18 10:35:35;;;;;;;26.00;12.70;;;;;;;-11.09;54.14;100537.53;1677203;80;21022;-88
2021/01/18 10:38:23;;;;;;;28.23;15.17;;;;;;;-11.09;54.43;100532.38;1668510;84;21322;-90
2021/01/18 10:41:10;;;;;;;25.20;13.13;;;;;;;-11.07;54.29;100533.62;1663708;84;21140;-90
2021/01/18 10:43:39;;;;;;;24.50;14.97;;;;;;;-11.19;53.99;100534.39;1639576;84;21164;-89
2021/01/18 10:46:16;;;;;;;20.40;12.83;;;;;;;-11.41;54.13;100542.34;1646186;85;21246;-88
2021/01/18 10:48:56;;;;;;;24.00;13.53;;;;;;;-11.53;55.29;100531.09;1621385;86;21240;-90
2021/01/18 10:51:26;;;;;;;26.63;13.43;;;;;;;-11.49;55.00;100542.53;1616171;88;21189;-92
2021/01/18 10:54:03;;;;;;;22.30;11.77;;;;;;;-11.38;54.92;100530.20;1618549;87;21139;-90
2021/01/18 10:56:34;;;;;;;21.97;11.67;;;;;;;-11.23;54.71;100543.52;1603905;88;21224;-90
2021/01/18 10:59:08;;;;;;;20.60;11.87;;;;;;;-11.14;55.10;100541.13;1614728;87;21182;-91
2021/01/18 11:04:48;;;;;;;22.20;12.43;;;;;;;-11.00;54.50;100540.25;1575679;89;21147;-89
2021/01/18 11:07:16;;;;;;;26.53;15.80;;;;;;;-10.87;54.46;100532.55;1587893;89;21954;-88
2021/01/18 11:09:50;;;;;;;26.10;13.30;;;;;;;-10.87;53.35;100536.41;1576675;91;21220;-90
2021/01/18 11:12:31;;;;;;;23.33;14.53;;;;;;;-10.95;54.13;100528.09;1598756;89;21345;-89
2021/01/18 11:15:01;;;;;;;26.53;15.67;;;;;;;-10.98;54.20;100532.03;1578786;89;21365;-89
2021/01/18 11:18:11;;;;;;;28.02;14.55;;;;;;;-10.94;54.33;100531.08;1582418;89;21344;-90
2021/01/18 11:21:02;;;;;;;21.03;11.67;;;;;;;-10.89;53.97;100527.89;1574105;90;21187;-90
2021/01/18 11:23:31;;;;;;;17.50;11.03;;;;;;;-10.89;54.35;100534.33;1571326;91;21342;-89
2021/01/18 11:25:59;;;;;;;24.93;13.07;;;;;;;-10.97;53.40;100526.84;1574274;90;21420;-90
2021/01/18 11:28:32;;;;;;;23.63;12.03;;;;;;;-11.03;53.42;100526.20;1580340;89;21241;-90
2021/01/18 11:31:02;;;;;;;20.87;10.70;;;;;;;-11.10;53.94;100532.42;1575888;91;21353;-90
2021/01/18 11:33:32;;;;;;;22.00;12.90;;;;;;;-11.19;54.27;100529.25;1581514;90;21236;-90
2021/01/18 11:36:01;;;;;;;28.83;12.20;;;;;;;-11.26;54.60;100528.16;1581805;89;21044;-89
2021/01/18 11:38:30;;;;;;;27.23;14.20;;;;;;;-11.34;55.74;100534.82;1582462;89;21227;-90
2021/01/18 11:40:59;;;;;;;27.00;13.10;;;;;;;-11.34;55.60;100530.12;1586050;89;21145;-89
2021/01/18 11:43:33;;;;;;;26.73;14.27;;;;;;;-11.37;55.85;100537.50;1586353;90;21193;-89
2021/01/18 11:46:17;;;;;;;28.43;16.23;;;;;;;-11.36;55.92;100529.74;1584761;89;21200;-91
2021/01/18 11:49:07;;;;;;;20.93;12.67;;;;;;;-11.26;56.04;100530.31;1575737;89;21176;-90
2021/01/18 11:52:14;;;;;;;25.13;12.43;;;;;;;-11.16;55.68;100539.44;1572167;90;21234;-89
2021/01/18 11:54:55;;;;;;;25.93;14.40;;;;;;;-11.24;55.18;100525.95;1557723;89;21184;-89
2021/01/18 11:57:53;;;;;;;25.90;13.43;;;;;;;-11.36;54.91;100530.16;1547684;90;21189;-89
2021/01/18 12:00:41;;;;;;;19.03;10.77;;;;;;;-11.43;55.57;100525.66;1542731;93;21249;-90
2021/01/18 12:03:11;;;;;;;18.90;9.90;;;;;;;-11.50;55.15;100522.02;1559656;91;21214;-89
2021/01/18 12:05:42;;;;;;;21.50;12.00;;;;;;;-11.54;56.56;100518.69;1523085;90;21124;-90